createdAt,value
2018-09-23T00:02:04.682Z,95716.00
2018-09-23T00:04:35.603Z,95716.00
2018-09-23T00:07:06.635Z,95723.00
2018-09-23T00:09:37.462Z,95717.00
2018-09-23T00:12:08.475Z,95709.00
2018-09-23T00:14:39.598Z,95713.00
2018-09-23T00:17:10.701Z,95718.00
2018-09-23T00:19:41.582Z,95719.00
2018-09-23T00:22:12.497Z,95724.00
2018-09-23T00:24:43.355Z,95722.00
2018-09-23T00:27:14.337Z,95721.00
2018-09-23T00:29:50.959Z,95719.00
2018-09-23T00:32:25.019Z,95723.00
2018-09-23T00:34:55.821Z,95718.00
2018-09-23T00:37:26.699Z,95712.00
2018-09-23T00:39:57.988Z,95709.00
2018-09-23T00:42:28.835Z,95712.00
2018-09-23T00:44:59.616Z,95714.00
2018-09-23T00:47:30.486Z,95707.00
2018-09-23T00:50:01.273Z,95705.00
2018-09-23T00:52:32.148Z,95697.00
2018-09-23T00:55:02.952Z,95694.00
2018-09-23T00:57:33.828Z,95705.00
2018-09-23T01:00:05.508Z,95710.00
2018-09-23T01:02:36.376Z,95693.00
2018-09-23T01:05:07.464Z,95696.00
2018-09-23T01:07:38.291Z,95690.00
2018-09-23T01:10:09.183Z,95691.00
2018-09-23T01:12:40.069Z,95694.00
2018-09-23T01:15:10.923Z,95695.00
2018-09-23T01:17:41.747Z,95696.00
2018-09-23T01:20:12.528Z,95692.00
2018-09-23T01:22:43.703Z,95694.00
2018-09-23T01:25:14.537Z,95697.00
2018-09-23T01:27:45.393Z,95697.00
2018-09-23T01:30:16.231Z,95696.00
2018-09-23T01:32:48.008Z,95686.00
2018-09-23T01:35:18.768Z,95685.00
2018-09-23T01:37:49.635Z,95696.00
2018-09-23T01:40:20.422Z,95688.00
2018-09-23T01:42:51.284Z,95687.00
2018-09-23T01:45:22.123Z,95691.00
2018-09-23T01:47:53.000Z,95690.00
2018-09-23T01:50:23.841Z,95685.00
2018-09-23T01:52:54.680Z,95685.00
2018-09-23T01:55:25.449Z,95684.00
2018-09-23T01:57:56.680Z,95684.00
2018-09-23T02:00:27.463Z,95684.00
2018-09-23T02:02:58.314Z,95674.00
2018-09-23T02:05:29.104Z,95686.00
2018-09-23T02:08:00.260Z,95676.00
2018-09-23T02:10:31.076Z,95668.00
2018-09-23T02:13:01.880Z,95670.00
2018-09-23T02:15:32.715Z,95658.00
2018-09-23T02:18:03.551Z,95676.00
2018-09-23T02:20:34.354Z,95652.00
2018-09-23T02:23:05.212Z,95660.00
2018-09-23T02:25:35.971Z,95660.00
2018-09-23T02:28:06.880Z,95669.00
2018-09-23T02:30:37.668Z,95654.00
2018-09-23T02:33:08.551Z,95646.00
2018-09-23T02:35:39.360Z,95650.00
2018-09-23T02:38:10.605Z,95646.00
2018-09-23T02:40:41.353Z,95641.00
2018-09-23T02:43:12.406Z,95645.00
2018-09-23T02:45:43.230Z,95663.00
2018-09-23T02:48:14.087Z,95654.00
2018-09-23T02:50:44.871Z,95647.00
2018-09-23T02:53:15.733Z,95648.00
2018-09-23T02:55:46.836Z,95641.00
2018-09-23T02:58:17.747Z,95638.00
2018-09-23T03:00:48.552Z,95631.00
2018-09-23T03:03:19.403Z,95637.00
2018-09-23T03:05:50.294Z,95637.00
2018-09-23T03:08:21.484Z,95646.00
2018-09-23T03:10:52.308Z,95646.00
2018-09-23T03:13:23.172Z,95641.00
2018-09-23T03:15:54.605Z,95648.00
2018-09-23T03:18:25.515Z,95642.00
2018-09-23T03:20:56.326Z,95639.00
2018-09-23T03:23:27.211Z,95643.00
2018-09-23T03:25:57.976Z,95633.00
2018-09-23T03:28:28.856Z,95643.00
2018-09-23T03:31:00.081Z,95642.00
2018-09-23T03:33:30.970Z,95629.00
2018-09-23T03:36:01.775Z,95633.00
2018-09-23T03:38:33.176Z,95627.00
2018-09-23T03:41:04.003Z,95632.00
2018-09-23T03:43:34.812Z,95630.00
2018-09-23T03:46:05.620Z,95631.00
2018-09-23T03:48:36.502Z,95623.00
2018-09-23T03:51:07.405Z,95617.00
2018-09-23T03:53:44.832Z,95613.00
2018-09-23T03:56:15.659Z,95620.00
2018-09-23T03:58:46.524Z,95614.00
2018-09-23T04:01:17.388Z,95619.00
2018-09-23T04:03:48.255Z,95602.00
2018-09-23T04:06:19.106Z,95600.00
2018-09-23T04:08:49.963Z,95594.00
2018-09-23T04:11:20.779Z,95589.00
2018-09-23T04:13:51.610Z,95582.00
2018-09-23T04:16:22.421Z,95577.00
2018-09-23T04:18:53.356Z,95585.00
2018-09-23T04:21:24.168Z,95582.00
2018-09-23T04:23:55.126Z,95583.00
2018-09-23T04:26:25.947Z,95580.00
2018-09-23T04:28:56.918Z,95575.00
2018-09-23T04:31:27.696Z,95567.00
2018-09-23T04:33:58.536Z,95569.00
2018-09-23T04:36:29.377Z,95568.00
2018-09-23T04:39:00.440Z,95565.00
2018-09-23T04:41:31.226Z,95570.00
2018-09-23T04:44:02.025Z,95561.00
2018-09-23T04:46:33.052Z,95567.00
2018-09-23T04:49:03.995Z,95571.00
2018-09-23T04:51:34.941Z,95560.00
2018-09-23T04:54:05.828Z,95566.00
2018-09-23T04:56:36.796Z,95560.00
2018-09-23T04:59:07.700Z,95570.00
2018-09-23T05:01:38.492Z,95562.00
2018-09-23T05:04:09.323Z,95557.00
2018-09-23T05:06:40.143Z,95561.00
2018-09-23T05:09:11.911Z,95565.00
2018-09-23T05:11:43.448Z,95571.00
2018-09-23T05:14:14.389Z,95569.00
2018-09-23T05:16:45.594Z,95577.00
2018-09-23T05:19:16.568Z,95580.00
2018-09-23T05:21:47.509Z,95575.00
2018-09-23T05:24:18.723Z,95569.00
2018-09-23T05:26:49.546Z,95564.00
2018-09-23T05:29:20.384Z,95556.00
2018-09-23T05:31:51.836Z,95556.00
2018-09-23T05:34:23.081Z,95549.00
2018-09-23T05:36:53.956Z,95549.00
2018-09-23T05:39:25.124Z,95554.00
2018-09-23T05:41:56.276Z,95544.00
2018-09-23T05:44:27.370Z,95545.00
2018-09-23T05:46:58.632Z,95548.00
2018-09-23T05:49:29.472Z,95540.00
2018-09-23T05:52:00.320Z,95547.00
2018-09-23T05:54:31.196Z,95543.00
2018-09-23T05:57:02.346Z,95548.00
2018-09-23T05:59:33.686Z,95546.00
2018-09-23T06:02:04.624Z,95548.00
2018-09-23T06:04:36.074Z,95553.00
2018-09-23T06:07:06.923Z,95557.00
2018-09-23T06:09:38.611Z,95556.00
2018-09-23T06:12:09.451Z,95547.00
2018-09-23T06:14:40.272Z,95534.00
2018-09-23T06:17:11.090Z,95545.00
2018-09-23T06:19:42.152Z,95533.00
2018-09-23T06:22:12.928Z,95531.00
2018-09-23T06:24:43.836Z,95533.00
2018-09-23T06:27:15.496Z,95528.00
2018-09-23T06:29:46.384Z,95534.00
2018-09-23T06:32:17.149Z,95525.00
2018-09-23T06:34:48.243Z,95529.00
2018-09-23T06:37:19.053Z,95515.00
2018-09-23T06:39:49.950Z,95511.00
2018-09-23T06:42:20.764Z,95527.00
2018-09-23T06:44:51.596Z,95527.00
2018-09-23T06:47:22.388Z,95532.00
2018-09-23T06:49:53.271Z,95530.00
2018-09-23T06:52:24.106Z,95525.00
2018-09-23T06:54:54.943Z,95522.00
2018-09-23T06:57:25.782Z,95527.00
2018-09-23T06:59:56.720Z,95517.00
2018-09-23T07:02:27.512Z,95512.00
2018-09-23T07:04:58.599Z,95515.00
2018-09-23T07:07:29.532Z,95511.00
2018-09-23T07:10:00.755Z,95518.00
2018-09-23T07:12:31.616Z,95514.00
2018-09-23T07:15:02.529Z,95505.00
2018-09-23T07:17:33.460Z,95512.00
2018-09-23T07:20:04.527Z,95509.00
2018-09-23T07:22:35.396Z,95509.00
2018-09-23T07:25:06.360Z,95508.00
2018-09-23T07:27:38.109Z,95520.00
2018-09-23T07:30:09.181Z,95508.00
2018-09-23T07:32:40.082Z,95511.00
2018-09-23T07:35:11.121Z,95510.00
2018-09-23T07:37:42.371Z,95522.00
2018-09-23T07:40:13.189Z,95511.00
2018-09-23T07:42:44.022Z,95509.00
2018-09-23T07:45:14.861Z,95512.00
2018-09-23T07:47:45.707Z,95522.00
2018-09-23T07:50:17.275Z,95520.00
2018-09-23T07:52:48.100Z,95518.00
2018-09-23T07:55:18.911Z,95527.00
2018-09-23T07:57:49.834Z,95519.00
2018-09-23T08:00:20.747Z,95517.00
2018-09-23T08:02:51.636Z,95511.00
2018-09-23T08:05:23.505Z,95510.00
2018-09-23T08:07:55.361Z,95513.00
2018-09-23T08:10:26.387Z,95510.00
2018-09-23T08:12:58.139Z,95504.00
2018-09-23T08:15:29.216Z,95512.00
2018-09-23T08:18:00.140Z,95505.00
2018-09-23T08:20:31.084Z,95500.00
2018-09-23T08:23:02.052Z,95498.00
2018-09-23T08:25:32.979Z,95495.00
2018-09-23T08:28:03.863Z,95487.00
2018-09-23T08:30:35.097Z,95484.00
2018-09-23T08:33:06.025Z,95480.00
2018-09-23T08:35:36.892Z,95475.00
2018-09-23T08:38:08.686Z,95485.00
2018-09-23T08:40:39.578Z,95471.00
2018-09-23T08:43:12.670Z,95484.00
2018-09-23T08:45:43.449Z,95487.00
2018-09-23T08:48:14.383Z,95495.00
2018-09-23T08:50:45.328Z,95488.00
2018-09-23T08:53:16.172Z,95485.00
2018-09-23T08:55:47.320Z,95475.00
2018-09-23T08:58:18.247Z,95479.00
2018-09-23T09:00:49.083Z,95484.00
2018-09-23T09:03:20.408Z,95469.00
2018-09-23T09:05:53.582Z,95468.00
2018-09-23T09:08:24.473Z,95461.00
2018-09-23T09:10:55.268Z,95458.00
2018-09-23T09:13:26.121Z,95463.00
2018-09-23T09:15:58.098Z,95463.00
2018-09-23T09:18:29.786Z,95457.00
2018-09-23T09:21:01.217Z,95453.00
2018-09-23T09:23:32.351Z,95450.00
2018-09-23T09:26:03.228Z,95435.00
2018-09-23T09:28:34.144Z,95429.00
2018-09-23T09:31:05.023Z,95434.00
2018-09-23T09:33:35.879Z,95435.00
2018-09-23T09:36:06.684Z,95437.00
2018-09-23T09:38:38.287Z,95432.00
2018-09-23T09:41:09.205Z,95429.00
2018-09-23T09:43:40.329Z,95421.00
2018-09-23T09:46:11.098Z,95410.00
2018-09-23T09:48:42.020Z,95405.00
2018-09-23T09:51:13.092Z,95406.00
2018-09-23T09:53:44.404Z,95393.00
2018-09-23T09:56:15.280Z,95390.00
2018-09-23T09:58:46.165Z,95393.00
2018-09-23T10:01:17.646Z,95386.00
2018-09-23T10:03:49.020Z,95376.00
2018-09-23T10:06:20.105Z,95377.00
2018-09-23T10:08:50.989Z,95368.00
2018-09-23T10:11:21.922Z,95376.00
2018-09-23T10:13:52.739Z,95369.00
2018-09-23T10:16:23.637Z,95361.00
2018-09-23T10:18:54.406Z,95359.00
2018-09-23T10:21:25.260Z,95360.00
2018-09-23T10:23:56.744Z,95353.00
2018-09-23T10:26:28.560Z,95347.00
2018-09-23T10:28:59.505Z,95342.00
2018-09-23T10:31:30.645Z,95341.00
2018-09-23T10:34:01.361Z,95332.00
2018-09-23T10:36:32.340Z,95330.00
2018-09-23T10:39:03.303Z,95331.00
2018-09-23T10:41:34.185Z,95335.00
2018-09-23T10:44:06.240Z,95326.00
2018-09-23T10:46:37.889Z,95325.00
2018-09-23T10:49:08.792Z,95316.00
2018-09-23T10:51:41.684Z,95308.00
2018-09-23T10:54:12.529Z,95303.00
2018-09-23T10:56:43.492Z,95296.00
2018-09-23T10:59:14.340Z,95293.00
2018-09-23T11:01:45.333Z,95285.00
2018-09-23T11:04:16.209Z,95269.00
2018-09-23T11:06:48.268Z,95268.00
2018-09-23T11:09:19.292Z,95263.00
2018-09-23T11:11:50.153Z,95249.00
2018-09-23T11:14:20.976Z,95248.00
2018-09-23T11:16:51.840Z,95241.00
2018-09-23T11:19:22.737Z,95229.00
2018-09-23T11:21:53.660Z,95221.00
2018-09-23T11:24:24.483Z,95217.00
2018-09-23T11:26:55.413Z,95218.00
2018-09-23T11:29:26.497Z,95207.00
2018-09-23T11:31:57.320Z,95207.00
2018-09-23T11:34:28.364Z,95203.00
2018-09-23T11:36:59.149Z,95187.00
2018-09-23T11:39:30.021Z,95182.00
2018-09-23T11:42:00.961Z,95176.00
2018-09-23T11:44:32.028Z,95177.00
2018-09-23T11:47:02.824Z,95179.00
2018-09-23T11:49:33.765Z,95175.00
2018-09-23T11:52:04.788Z,95169.00
2018-09-23T11:54:37.833Z,95165.00
2018-09-23T11:57:08.652Z,95156.00
2018-09-23T11:59:39.521Z,95153.00
2018-09-23T12:02:10.536Z,95142.00
2018-09-23T12:04:41.476Z,95129.00
2018-09-23T12:07:12.329Z,95134.00
2018-09-23T12:09:44.249Z,95137.00
2018-09-23T12:12:15.081Z,95119.00
2018-09-23T12:14:46.089Z,95112.00
2018-09-23T12:17:16.897Z,95102.00
2018-09-23T12:19:47.828Z,95101.00
2018-09-23T12:22:19.042Z,95097.00
2018-09-23T12:24:50.190Z,95088.00
2018-09-23T12:27:21.223Z,95081.00
2018-09-23T12:29:54.327Z,95078.00
2018-09-23T12:32:25.192Z,95073.00
2018-09-23T12:34:58.187Z,95063.00
2018-09-23T12:37:29.085Z,95053.00
2018-09-23T12:40:00.087Z,95046.00
2018-09-23T12:42:30.953Z,95047.00
2018-09-23T12:45:01.989Z,95046.00
2018-09-23T12:47:32.765Z,95034.00
2018-09-23T12:50:03.725Z,95029.00
2018-09-23T12:52:34.657Z,95020.00
2018-09-23T12:55:05.701Z,95006.00
2018-09-23T12:57:36.745Z,95004.00
2018-09-23T13:00:07.848Z,95007.00
2018-09-23T13:02:38.752Z,94992.00
2018-09-23T13:05:09.964Z,94988.00
2018-09-23T13:07:40.843Z,94978.00
2018-09-23T13:10:12.324Z,94969.00
2018-09-23T13:12:43.185Z,94972.00
2018-09-23T13:15:14.148Z,94960.00
2018-09-23T13:17:45.050Z,94945.00
2018-09-23T13:20:15.945Z,94941.00
2018-09-23T13:22:46.792Z,94941.00
2018-09-23T13:25:17.897Z,94944.00
2018-09-23T13:27:48.812Z,94939.00
2018-09-23T13:30:20.733Z,94929.00
2018-09-23T13:32:51.896Z,94912.00
2018-09-23T13:35:22.804Z,94902.00
2018-09-23T13:37:53.692Z,94908.00
2018-09-23T13:40:24.625Z,94902.00
2018-09-23T13:42:55.472Z,94903.00
2018-09-23T13:45:26.455Z,94901.00
2018-09-23T13:47:57.277Z,94885.00
2018-09-23T13:50:28.140Z,94883.00
2018-09-23T13:52:59.047Z,94883.00
2018-09-23T13:55:30.795Z,94878.00
2018-09-23T13:58:01.824Z,94877.00
2018-09-23T14:00:32.790Z,94873.00
2018-09-23T14:03:03.617Z,94866.00
2018-09-23T14:05:34.583Z,94843.00
2018-09-23T14:08:05.552Z,94835.00
2018-09-23T14:10:36.499Z,94843.00
2018-09-23T14:13:07.496Z,94846.00
2018-09-23T14:15:38.437Z,94848.00
2018-09-23T14:18:09.286Z,94842.00
2018-09-23T14:20:40.184Z,94842.00
2018-09-23T14:23:11.084Z,94834.00
2018-09-23T14:25:42.041Z,94829.00
2018-09-23T14:28:12.945Z,94814.00
2018-09-23T14:30:43.981Z,94803.00
2018-09-23T14:33:15.186Z,94802.00
2018-09-23T14:35:46.081Z,94807.00
2018-09-23T14:38:17.087Z,94808.00
2018-09-23T14:40:47.989Z,94813.00
2018-09-23T14:43:18.880Z,94818.00
2018-09-23T14:45:50.229Z,94815.00
2018-09-23T14:48:21.584Z,94812.00
2018-09-23T14:50:52.484Z,94798.00
2018-09-23T14:53:23.364Z,94797.00
2018-09-23T14:55:54.336Z,94790.00
2018-09-23T14:58:25.225Z,94787.00
2018-09-23T15:00:56.549Z,94789.00
2018-09-23T15:03:27.627Z,94792.00
2018-09-23T15:05:58.585Z,94789.00
2018-09-23T15:08:29.807Z,94778.00
2018-09-23T15:11:00.754Z,94789.00
2018-09-23T15:13:31.579Z,94789.00
2018-09-23T15:16:02.442Z,94760.00
2018-09-23T15:18:33.372Z,94757.00
2018-09-23T15:21:04.221Z,94763.00
2018-09-23T15:23:35.046Z,94766.00
2018-09-23T15:26:05.960Z,94746.00
2018-09-23T15:28:36.956Z,94749.00
2018-09-23T15:31:07.845Z,94751.00
2018-09-23T15:33:38.736Z,94722.00
2018-09-23T15:36:09.748Z,94700.00
2018-09-23T15:38:40.573Z,94707.00
2018-09-23T15:41:11.417Z,94698.00
2018-09-23T15:43:42.275Z,94694.00
2018-09-23T15:46:13.536Z,94702.00
2018-09-23T15:48:44.333Z,94703.00
2018-09-23T15:51:15.188Z,94711.00
2018-09-23T15:53:47.132Z,94711.00
2018-09-23T15:56:18.049Z,94709.00
2018-09-23T15:58:49.888Z,94703.00
2018-09-23T16:01:20.737Z,94701.00
2018-09-23T16:03:51.597Z,94683.00
2018-09-23T16:06:22.485Z,94673.00
2018-09-23T16:08:53.375Z,94667.00
2018-09-23T16:11:24.272Z,94667.00
2018-09-23T16:13:55.731Z,94677.00
2018-09-23T16:16:26.589Z,94665.00
2018-09-23T16:18:57.442Z,94670.00
2018-09-23T16:21:28.425Z,94664.00
2018-09-23T16:23:59.196Z,94655.00
2018-09-23T16:26:30.683Z,94645.00
2018-09-23T16:29:03.245Z,94638.00
2018-09-23T16:31:34.144Z,94636.00
2018-09-23T16:34:05.001Z,94636.00
2018-09-23T16:36:35.885Z,94634.00
2018-09-23T16:39:10.128Z,94638.00
2018-09-23T16:41:41.600Z,94635.00
2018-09-23T16:44:12.445Z,94635.00
2018-09-23T16:46:45.023Z,94625.00
2018-09-23T16:49:15.915Z,94612.00
2018-09-23T16:51:46.768Z,94607.00
2018-09-23T16:54:17.761Z,94611.00
2018-09-23T16:56:48.885Z,94612.00
2018-09-23T16:59:20.720Z,94603.00
2018-09-23T17:01:51.478Z,94594.00
2018-09-23T17:04:22.364Z,94596.00
2018-09-23T17:06:54.125Z,94594.00
2018-09-23T17:09:24.946Z,94581.00
2018-09-23T17:11:55.728Z,94579.00
2018-09-23T17:14:26.681Z,94574.00
2018-09-23T17:16:57.586Z,94580.00
2018-09-23T17:19:28.636Z,94587.00
2018-09-23T17:21:59.471Z,94584.00
2018-09-23T17:24:30.899Z,94578.00
2018-09-23T17:27:01.791Z,94579.00
2018-09-23T17:29:33.303Z,94572.00
2018-09-23T17:32:04.121Z,94564.00
2018-09-23T17:34:34.993Z,94559.00
2018-09-23T17:37:05.817Z,94546.00
2018-09-23T17:39:39.744Z,94546.00
2018-09-23T17:42:11.426Z,94539.00
2018-09-23T17:44:42.508Z,94541.00
2018-09-23T17:47:14.400Z,94544.00
2018-09-23T17:49:45.201Z,94555.00
2018-09-23T17:52:17.660Z,94543.00
2018-09-23T17:54:48.443Z,94543.00
2018-09-23T17:57:19.420Z,94553.00
2018-09-23T17:59:50.235Z,94553.00
2018-09-23T18:02:21.665Z,94571.00
2018-09-23T18:04:53.022Z,94567.00
2018-09-23T18:07:23.904Z,94557.00
2018-09-23T18:09:54.752Z,94552.00
2018-09-23T18:12:26.101Z,94566.00
2018-09-23T18:14:57.517Z,94562.00
2018-09-23T18:17:28.897Z,94557.00
2018-09-23T18:20:00.223Z,94557.00
2018-09-23T18:22:31.142Z,94560.00
2018-09-23T18:25:01.984Z,94552.00
2018-09-23T18:27:32.868Z,94571.00
2018-09-23T18:30:03.753Z,94570.00
2018-09-23T18:32:35.508Z,94573.00
2018-09-23T18:35:06.613Z,94570.00
2018-09-23T18:37:37.581Z,94568.00
2018-09-23T18:40:09.470Z,94554.00
2018-09-23T18:42:40.324Z,94543.00
2018-09-23T18:45:13.084Z,94551.00
2018-09-23T18:47:43.972Z,94558.00
2018-09-23T18:50:15.208Z,94547.00
2018-09-23T18:52:46.671Z,94542.00
2018-09-23T18:55:24.127Z,94541.00
2018-09-23T18:57:55.163Z,94543.00
2018-09-23T19:00:25.960Z,94534.00
2018-09-23T19:02:56.826Z,94528.00
2018-09-23T19:05:27.999Z,94541.00
2018-09-23T19:07:59.607Z,94538.00
2018-09-23T19:10:32.032Z,94553.00
2018-09-23T19:13:07.879Z,94552.00
2018-09-23T19:15:38.736Z,94568.00
2018-09-23T19:18:10.616Z,94557.00
2018-09-23T19:20:41.690Z,94559.00
2018-09-23T19:23:13.729Z,94563.00
2018-09-23T19:25:44.548Z,94572.00
2018-09-23T19:28:15.430Z,94555.00
2018-09-23T19:30:46.290Z,94559.00
2018-09-23T19:33:17.396Z,94566.00
2018-09-23T19:35:48.270Z,94595.00
2018-09-23T19:38:20.540Z,94560.00
2018-09-23T19:40:51.385Z,94523.00
2018-09-23T19:43:22.297Z,94536.00
2018-09-23T19:45:53.116Z,94534.00
2018-09-23T19:48:24.872Z,94540.00
2018-09-23T19:50:56.230Z,94520.00
2018-09-23T19:53:27.054Z,94515.00
2018-09-23T19:55:57.837Z,94513.00
2018-09-23T19:58:30.718Z,94518.00
2018-09-23T20:01:01.623Z,94528.00
2018-09-23T20:03:32.447Z,94526.00
2018-09-23T20:06:03.241Z,94551.00
2018-09-23T20:08:34.073Z,94593.00
2018-09-23T20:11:05.108Z,94612.00
2018-09-23T20:13:36.018Z,94566.00
2018-09-23T20:16:07.081Z,94588.00
2018-09-23T20:18:38.884Z,94617.00
2018-09-23T20:21:09.892Z,94612.00
2018-09-23T20:23:44.621Z,94621.00
2018-09-23T20:26:17.512Z,94642.00
2018-09-23T20:28:48.510Z,94670.00
2018-09-23T20:31:19.465Z,94657.00
2018-09-23T20:33:50.380Z,94666.00
2018-09-23T20:36:21.210Z,94734.00
2018-09-23T20:38:52.072Z,94735.00
2018-09-23T20:41:22.919Z,94778.00
2018-09-23T20:43:53.819Z,94771.00
2018-09-23T20:46:24.694Z,94828.00
2018-09-23T20:48:55.528Z,94863.00
2018-09-23T20:51:26.332Z,94897.00
2018-09-23T20:53:57.168Z,94965.00
2018-09-23T20:56:28.312Z,94938.00
2018-09-23T20:58:59.172Z,94958.00
2018-09-23T21:01:30.005Z,94961.00
2018-09-23T21:04:00.920Z,95001.00
2018-09-23T21:06:32.700Z,94978.00
2018-09-23T21:09:03.795Z,95007.00
2018-09-23T21:11:34.623Z,95073.00
2018-09-23T21:14:06.362Z,95020.00
2018-09-23T21:16:37.201Z,95054.00
2018-09-23T21:19:08.084Z,95028.00
2018-09-23T21:21:38.897Z,95047.00
2018-09-23T21:24:09.764Z,95082.00
2018-09-23T21:26:40.602Z,95133.00
2018-09-23T21:29:11.631Z,95099.00
2018-09-23T21:31:42.452Z,95081.00
2018-09-23T21:34:13.625Z,95088.00
2018-09-23T21:36:44.528Z,95080.00
2018-09-23T21:39:15.394Z,95094.00
2018-09-23T21:41:46.189Z,95120.00
2018-09-23T21:44:17.066Z,95125.00
2018-09-23T21:46:47.936Z,95128.00
2018-09-23T21:49:18.997Z,95139.00
2018-09-23T21:51:49.884Z,95138.00
2018-09-23T21:54:20.800Z,95160.00
2018-09-23T21:56:51.696Z,95169.00
2018-09-23T21:59:22.576Z,95163.00
2018-09-23T22:01:53.449Z,95173.00
2018-09-23T22:04:24.371Z,95167.00
2018-09-23T22:06:55.596Z,95174.00
2018-09-23T22:09:26.441Z,95198.00
2018-09-23T22:11:57.268Z,95215.00
2018-09-23T22:14:28.322Z,95196.00
2018-09-23T22:16:59.180Z,95206.00
2018-09-23T22:19:30.056Z,95209.00
2018-09-23T22:22:00.961Z,95230.00
2018-09-23T22:24:31.814Z,95244.00
2018-09-23T22:27:02.771Z,95257.00
2018-09-23T22:29:33.646Z,95280.00
2018-09-23T22:32:05.070Z,95300.00
2018-09-23T22:34:35.975Z,95327.00
2018-09-23T22:37:06.904Z,95342.00
2018-09-23T22:39:37.777Z,95358.00
2018-09-23T22:42:09.079Z,95371.00
2018-09-23T22:44:39.897Z,95374.00
2018-09-23T22:47:10.873Z,95366.00
2018-09-23T22:49:41.750Z,95390.00
2018-09-23T22:52:12.601Z,95421.00
2018-09-23T22:54:43.436Z,95433.00
2018-09-23T22:57:14.275Z,95446.00
2018-09-23T22:59:45.157Z,95453.00
2018-09-23T23:02:15.947Z,95472.00
2018-09-23T23:04:46.789Z,95476.00
2018-09-23T23:07:17.976Z,95499.00
2018-09-23T23:09:48.941Z,95511.00
2018-09-23T23:12:19.761Z,95519.00
2018-09-23T23:14:50.708Z,95518.00
2018-09-23T23:17:21.522Z,95534.00
2018-09-23T23:19:52.388Z,95538.00
2018-09-23T23:22:23.215Z,95545.00
2018-09-23T23:24:54.032Z,95552.00
2018-09-23T23:27:25.272Z,95568.00
2018-09-23T23:29:56.085Z,95581.00
2018-09-23T23:32:26.975Z,95569.00
2018-09-23T23:34:57.859Z,95578.00
2018-09-23T23:37:28.692Z,95596.00
2018-09-23T23:39:59.732Z,95587.00
2018-09-23T23:42:30.781Z,95591.00
2018-09-23T23:45:01.648Z,95644.00
2018-09-23T23:47:32.480Z,95626.00
2018-09-23T23:50:03.671Z,95635.00
2018-09-23T23:52:34.639Z,95686.00
2018-09-23T23:55:05.565Z,95687.00
2018-09-23T23:57:36.380Z,95674.00
